Terminal Aerodrome Forecast
Issued by NWS Charleston, WV

Current Version | Previous Version | Graphics & Text | Print | Product List | Glossary On
Versions: 1 2 3 4 5 6 7 8 9 10 11 12 13 14 15 16 17 18 19 20 21 22 23 24 25 26 27 28
267
FTUS41 KRLX 242320
TAFBKW
TAF
KBKW 242320Z 2500/2524 10009KT P6SM SHRA OVC013
     FM251300 07006KT P6SM -SHRA BKN009
     FM251700 05004KT P6SM -SHRA BKN010
     FM251900 03004KT P6SM -SHRA BKN020
     FM252100 01004KT P6SM BKN040=

USA.gov is the U.S. government's official web portal to all federal, state and local government web resources and services.